Time;durP1;ratioP1;P1;durP2;ratioP2;P2;SDS_P1;SDS_P2;PMS_P1;PMS_P2;Temp;Humidity;BMP_temperature;BMP_pressure;BME280_temperature;BME280_humidity;BME280_pressure;Samples;Min_cycle;Max_cycle;Signal;HPM_P1;HPM_P2
2023/02/04 00:00:44;;;;;;;;;8.00;6.75;;;;;12.67;66.90;103160.00;5071638;27;45355;-64
2023/02/04 00:03:10;;;;;;;;;8.50;7.00;;;;;12.69;66.99;103155.50;5059973;28;45444;-64
2023/02/04 00:05:35;;;;;;;;;10.00;7.75;;;;;12.70;66.85;103159.97;5060322;28;45378;-64
2023/02/04 00:08:01;;;;;;;;;8.00;7.00;;;;;12.60;66.89;103136.78;5060901;28;45559;-64
2023/02/04 00:10:26;;;;;;;;;6.00;6.00;;;;;12.60;67.08;103148.38;5074494;28;45473;-64
2023/02/04 00:12:51;;;;;;;;;5.50;5.50;;;;;12.61;67.06;103135.88;5071433;27;45430;-64
2023/02/04 00:15:17;;;;;;;;;8.25;7.00;;;;;12.60;66.95;103150.19;5074615;28;50750;-64
2023/02/04 00:17:42;;;;;;;;;8.25;6.75;;;;;12.69;67.08;103157.31;5070929;28;45413;-63
2023/02/04 00:20:08;;;;;;;;;5.00;5.00;;;;;12.63;67.24;103154.63;5078604;27;48645;-64
2023/02/04 00:22:33;;;;;;;;;11.75;10.25;;;;;12.64;67.01;103151.06;5062248;27;45343;-64
2023/02/04 00:24:58;;;;;;;;;11.25;11.00;;;;;12.69;67.12;103158.19;5076161;27;45394;-64
2023/02/04 00:27:24;;;;;;;;;12.00;8.50;;;;;12.65;67.28;103143.03;5070222;28;52303;-64
2023/02/04 00:29:49;;;;;;;;;9.75;9.75;;;;;12.70;67.18;103151.94;5059969;28;45401;-64
2023/02/04 00:32:14;;;;;;;;;10.00;9.25;;;;;12.69;67.07;103150.16;5060107;28;45365;-64
2023/02/04 00:34:40;;;;;;;;;8.50;8.50;;;;;12.69;67.05;103146.59;5059544;28;49066;-64
2023/02/04 00:37:05;;;;;;;;;12.50;7.00;;;;;12.71;67.09;103148.38;5077974;28;45342;-64
2023/02/04 00:39:31;;;;;;;;;15.00;10.00;;;;;12.72;67.02;103150.16;5059469;28;45416;-64
2023/02/04 00:41:56;;;;;;;;;6.00;6.00;;;;;12.69;67.13;103138.53;5060434;28;45298;-64
2023/02/04 00:44:21;;;;;;;;;8.25;7.25;;;;;12.67;67.33;103135.00;5080225;28;45536;-64
2023/02/04 00:46:47;;;;;;;;;12.50;10.75;;;;;12.69;67.29;103142.09;5064495;28;47861;-64
2023/02/04 00:49:13;;;;;;;;;11.00;8.50;;;;;12.72;67.37;103144.78;5060748;28;45339;-64
2023/02/04 00:51:39;;;;;;;;;10.75;8.00;;;;;12.64;67.53;103135.00;5064293;28;45390;-64
2023/02/04 00:54:06;;;;;;;;;5.00;3.00;;;;;12.68;67.50;103143.03;5059741;28;45594;-64
2023/02/04 00:56:32;;;;;;;;;10.00;9.25;;;;;12.69;67.48;103143.91;5059603;28;46100;-64
2023/02/04 00:58:57;;;;;;;;;12.75;11.75;;;;;12.60;67.35;103131.44;5059501;28;45331;-64
2023/02/04 01:01:22;;;;;;;;;13.50;11.50;;;;;12.70;67.44;103151.94;5058990;28;56183;-64
2023/02/04 01:03:48;;;;;;;;;9.75;9.75;;;;;12.66;67.50;103144.78;5059316;28;45426;-64
2023/02/04 01:06:13;;;;;;;;;8.25;8.25;;;;;12.68;67.48;103147.47;5059155;28;47407;-64
2023/02/04 01:08:38;;;;;;;;;13.25;9.75;;;;;12.69;67.73;103152.81;5068565;28;45416;-64
2023/02/04 01:11:04;;;;;;;;;11.25;10.50;;;;;12.63;67.56;103143.91;5063693;27;49135;-64
2023/02/04 01:13:29;;;;;;;;;9.25;9.25;;;;;12.63;67.69;103152.88;5078138;28;45490;-64
2023/02/04 01:15:55;;;;;;;;;12.00;11.25;;;;;12.67;67.44;103157.31;5065612;27;45369;-64
2023/02/04 01:18:20;;;;;;;;;11.00;9.50;;;;;12.67;68.15;103153.75;5061923;28;45382;-64
2023/02/04 01:20:45;;;;;;;;;10.25;10.25;;;;;12.63;67.99;103154.63;5078666;27;45293;-64
2023/02/04 01:23:11;;;;;;;;;13.00;12.25;;;;;12.63;67.90;103154.63;5078762;28;54672;-64
2023/02/04 01:25:36;;;;;;;;;13.50;11.25;;;;;12.63;67.91;103151.94;5071778;27;46234;-64
2023/02/04 01:28:01;;;;;;;;;12.25;11.00;;;;;12.66;68.05;103160.88;5071602;27;45269;-64
2023/02/04 01:30:27;;;;;;;;;11.00;11.00;;;;;12.67;68.02;103165.34;5072350;28;45309;-64
2023/02/04 01:32:52;;;;;;;;;12.00;10.00;;;;;12.61;68.09;103160.00;5059310;28;45300;-64
2023/02/04 01:35:17;;;;;;;;;15.00;12.50;;;;;12.66;68.04;103163.53;5063475;28;45363;-64
2023/02/04 01:37:43;;;;;;;;;11.00;10.00;;;;;12.62;67.97;103153.75;5073049;27;45275;-64
2023/02/04 01:40:09;;;;;;;;;11.50;11.50;;;;;12.68;68.00;103161.78;5059247;28;45503;-64
2023/02/04 01:42:35;;;;;;;;;12.00;11.25;;;;;12.63;68.13;103162.66;5074561;28;45637;-64
2023/02/04 01:45:01;;;;;;;;;10.25;10.25;;;;;12.62;68.28;103158.22;5079230;27;45398;-64
2023/02/04 01:47:26;;;;;;;;;10.75;10.75;;;;;12.60;68.22;103167.16;5058860;28;45692;-64
2023/02/04 01:49:54;;;;;;;;;15.25;12.50;;;;;12.57;68.29;103160.91;5058651;28;45531;-64
2023/02/04 01:52:21;;;;;;;;;13.25;12.00;;;;;12.56;68.25;103160.03;5074075;28;45413;-64
2023/02/04 01:54:46;;;;;;;;;14.50;14.00;;;;;12.55;68.33;103166.28;5066020;28;45535;-64
2023/02/04 01:57:14;;;;;;;;;16.75;13.75;;;;;12.59;68.65;103164.47;5070930;27;45568;-64
2023/02/04 01:59:43;;;;;;;;;12.75;12.75;;;;;12.58;68.42;103166.25;5058748;28;45688;-64
2023/02/04 02:02:39;;;;;;;;;13.00;11.00;;;;;12.59;68.57;103169.81;5058662;28;45516;-64
2023/02/04 02:05:05;;;;;;;;;14.75;13.00;;;;;12.54;68.82;103163.59;5058210;28;45487;-64
2023/02/04 02:07:30;;;;;;;;;15.00;14.25;;;;;12.48;68.65;103153.78;5058668;28;45343;-64
2023/02/04 02:09:55;;;;;;;;;14.50;14.00;;;;;12.55;68.96;103162.72;5073041;28;45409;-64
2023/02/04 02:12:21;;;;;;;;;16.00;14.75;;;;;12.52;68.95;103152.88;5067932;28;45729;-64
2023/02/04 02:14:46;;;;;;;;;13.75;12.50;;;;;12.52;68.75;103157.34;5075319;28;46280;-64
2023/02/04 02:17:12;;;;;;;;;13.50;13.00;;;;;12.52;68.93;103157.34;5074235;28;51350;-64
2023/02/04 02:19:37;;;;;;;;;14.25;13.50;;;;;12.56;68.95;103157.34;5075361;27;45487;-65
2023/02/04 02:22:19;;;;;;;;;15.00;13.75;;;;;12.48;68.91;103140.41;5076343;28;45682;-64
2023/02/04 02:24:44;;;;;;;;;12.00;12.00;;;;;12.55;68.97;103152.00;5075282;28;46255;-64
2023/02/04 02:27:11;;;;;;;;;12.50;12.25;;;;;12.49;69.17;103138.59;5067109;27;53341;-64
2023/02/04 02:29:39;;;;;;;;;13.75;11.25;;;;;12.47;69.10;103133.25;5061937;28;45507;-64
2023/02/04 02:32:06;;;;;;;;;14.00;12.00;;;;;12.55;69.05;103146.63;5073666;28;45831;-64
2023/02/04 02:34:33;;;;;;;;;15.50;14.50;;;;;12.55;68.80;103144.84;5075213;28;45598;-64
2023/02/04 02:37:01;;;;;;;;;15.75;13.25;;;;;12.56;69.48;103145.72;5079200;28;46097;-64
2023/02/04 02:39:26;;;;;;;;;16.25;13.75;;;;;12.48;69.16;103131.44;5069173;28;45456;-64
2023/02/04 02:41:54;;;;;;;;;14.25;14.25;;;;;12.59;69.07;103143.91;5072794;27;45470;-64
2023/02/04 02:44:19;;;;;;;;;20.25;18.25;;;;;12.52;69.14;103136.81;5082025;27;45263;-64
2023/02/04 02:46:45;;;;;;;;;15.00;13.50;;;;;12.55;69.08;103139.47;5068932;28;45313;-64
2023/02/04 02:49:18;;;;;;;;;13.50;12.75;;;;;12.59;69.06;103148.41;5061487;28;45430;-64
2023/02/04 02:51:45;;;;;;;;;12.00;12.00;;;;;12.57;69.30;103145.72;5073889;28;45515;-64
2023/02/04 02:54:27;;;;;;;;;16.25;14.00;;;;;12.55;69.31;103141.28;5073024;27;45330;-64
2023/02/04 02:56:53;;;;;;;;;15.25;15.00;;;;;12.58;69.41;103141.28;5061188;28;45587;-64
2023/02/04 02:59:18;;;;;;;;;15.75;12.75;;;;;12.54;69.08;103143.03;5061464;28;45281;-64
2023/02/04 03:01:49;;;;;;;;;18.50;14.00;;;;;12.62;69.17;103151.06;5061230;28;45336;-64
2023/02/04 03:04:15;;;;;;;;;16.00;13.25;;;;;12.62;69.63;103153.75;5061307;28;45390;-64
2023/02/04 03:06:41;;;;;;;;;16.75;13.25;;;;;12.57;69.33;103150.19;5061066;28;45804;-64
2023/02/04 03:09:06;;;;;;;;;15.75;13.25;;;;;12.62;69.27;103158.22;5074571;28;45357;-64
2023/02/04 03:11:32;;;;;;;;;16.00;15.25;;;;;12.61;69.32;103157.31;5076837;28;45448;-64
2023/02/04 03:14:02;;;;;;;;;13.75;13.00;;;;;12.64;69.35;103164.47;5081495;27;45434;-64
2023/02/04 03:16:31;;;;;;;;;19.00;13.50;;;;;12.63;69.44;103154.63;5063510;27;45595;-64
2023/02/04 03:18:58;;;;;;;;;17.00;13.00;;;;;12.55;69.31;103139.47;5069039;28;45337;-64
2023/02/04 03:21:24;;;;;;;;;14.00;13.25;;;;;12.65;69.30;103147.50;5064018;28;45657;-64
2023/02/04 03:23:50;;;;;;;;;15.75;13.50;;;;;12.66;69.34;103149.28;5060949;28;45292;-64
2023/02/04 03:26:15;;;;;;;;;11.75;11.75;;;;;12.64;69.35;103143.91;5069804;28;45663;-64
2023/02/04 03:28:41;;;;;;;;;14.50;13.50;;;;;12.64;69.48;103137.66;5068918;27;45344;-64
2023/02/04 03:31:07;;;;;;;;;14.25;12.75;;;;;12.68;69.51;103147.47;5071390;27;45495;-64
2023/02/04 03:33:34;;;;;;;;;18.50;16.00;;;;;12.61;69.42;103141.22;5068268;27;46469;-64
2023/02/04 03:36:00;;;;;;;;;16.50;15.00;;;;;12.63;69.46;103158.22;5075484;27;45372;-64
2023/02/04 03:38:25;;;;;;;;;12.25;12.25;;;;;12.62;69.65;103156.44;5067385;27;45319;-64
2023/02/04 03:40:51;;;;;;;;;15.75;13.75;;;;;12.59;69.38;103148.41;5062697;27;45440;-63
2023/02/04 03:43:16;;;;;;;;;9.00;8.50;;;;;12.62;69.43;103152.88;5071117;28;51362;-64
2023/02/04 03:45:41;;;;;;;;;13.25;12.25;;;;;12.63;69.46;103154.63;5075337;28;45321;-64
2023/02/04 03:48:07;;;;;;;;;18.00;15.00;;;;;12.58;69.59;103143.94;5061610;28;45256;-64
2023/02/04 03:50:32;;;;;;;;;16.00;11.75;;;;;12.59;69.74;103153.75;5063723;28;51405;-64
2023/02/04 03:52:57;;;;;;;;;14.75;14.75;;;;;12.58;69.65;103154.66;5080766;28;46328;-64
2023/02/04 03:55:25;;;;;;;;;11.75;10.75;;;;;12.62;69.66;103156.44;5061895;28;45426;-64
2023/02/04 03:57:50;;;;;;;;;14.00;13.00;;;;;12.64;69.74;103157.31;5060555;28;45604;-64
2023/02/04 04:00:16;;;;;;;;;12.50;12.50;;;;;12.62;69.59;103159.09;5060400;28;45410;-64
2023/02/04 04:02:41;;;;;;;;;14.75;12.25;;;;;12.62;69.55;103153.75;5071444;28;48381;-64
2023/02/04 04:05:07;;;;;;;;;16.00;13.50;;;;;12.68;69.54;103166.22;5074499;28;45405;-64
2023/02/04 04:07:33;;;;;;;;;16.00;11.75;;;;;12.63;69.38;103154.63;5060407;28;45318;-64
2023/02/04 04:09:58;;;;;;;;;12.75;12.75;;;;;12.62;69.34;103155.53;5074714;27;45317;-64
2023/02/04 04:12:23;;;;;;;;;14.50;12.50;;;;;12.70;69.72;103167.13;5077575;28;46232;-64
2023/02/04 04:14:49;;;;;;;;;13.00;11.50;;;;;12.69;69.54;103171.59;5074070;27;45484;-64
2023/02/04 04:17:14;;;;;;;;;13.50;13.25;;;;;12.70;69.31;103175.19;5067304;28;45510;-64
2023/02/04 04:19:39;;;;;;;;;19.25;12.75;;;;;12.68;69.44;103168.91;5076440;28;49515;-64
2023/02/04 04:22:04;;;;;;;;;11.50;11.50;;;;;12.69;69.49;103179.63;5064824;27;45392;-64
2023/02/04 04:24:30;;;;;;;;;12.75;10.50;;;;;12.66;69.45;103170.72;5063983;28;45353;-64
2023/02/04 04:26:55;;;;;;;;;12.00;12.00;;;;;12.68;69.55;103174.25;5069539;28;45465;-64
2023/02/04 04:29:20;;;;;;;;;14.00;12.75;;;;;12.66;69.53;103166.22;5059887;28;45582;-64
2023/02/04 04:31:46;;;;;;;;;11.75;10.50;;;;;12.63;69.68;103173.38;5059590;28;53989;-63
2023/02/04 04:34:11;;;;;;;;;13.75;10.25;;;;;12.59;69.51;103168.03;5059419;28;52856;-64
2023/02/04 04:36:36;;;;;;;;;15.50;13.25;;;;;12.66;69.55;103176.06;5075525;28;46216;-64
2023/02/04 04:39:02;;;;;;;;;1.00;0.00;;;;;12.63;69.62;103171.63;5062995;28;45393;-64
2023/02/04 04:41:27;;;;;;;;;10.75;9.75;;;;;12.64;69.68;103183.22;5062715;28;45698;-64
2023/02/04 04:43:53;;;;;;;;;14.75;12.75;;;;;12.66;69.37;103181.44;5074991;28;45436;-63
2023/02/04 04:46:18;;;;;;;;;12.75;10.50;;;;;12.65;69.41;103185.91;5069668;27;45231;-64
2023/02/04 04:48:43;;;;;;;;;12.75;11.00;;;;;12.60;69.78;103183.22;5059388;28;45342;-64
2023/02/04 04:51:09;;;;;;;;;14.50;14.25;;;;;12.58;69.40;103171.63;5058020;28;52593;-64
2023/02/04 04:53:34;;;;;;;;;11.50;11.50;;;;;12.60;69.65;103174.31;5059630;28;45443;-64
2023/02/04 04:55:59;;;;;;;;;9.00;6.75;;;;;12.55;69.43;103181.47;5059375;28;45472;-63
2023/02/04 04:58:25;;;;;;;;;14.75;14.50;;;;;12.54;69.56;103190.38;5059316;28;45293;-63
2023/02/04 05:00:50;;;;;;;;;11.75;11.75;;;;;12.53;69.54;103197.53;5058060;28;51357;-64
2023/02/04 05:03:15;;;;;;;;;6.00;3.75;;;;;12.60;69.67;103199.31;5074622;28;45449;-64
2023/02/04 05:05:40;;;;;;;;;11.25;10.25;;;;;12.60;69.43;103198.41;5069968;27;45291;-64
2023/02/04 05:08:12;;;;;;;;;13.50;10.25;;;;;12.55;69.60;103192.19;5064040;28;45493;-64
2023/02/04 05:10:40;;;;;;;;;14.00;11.50;;;;;12.59;69.47;103194.81;5077706;28;47224;-64
2023/02/04 05:13:06;;;;;;;;;13.00;12.00;;;;;12.57;69.57;103193.06;5075790;28;45573;-64
2023/02/04 05:15:32;;;;;;;;;13.75;12.00;;;;;12.59;69.45;103191.25;5069995;27;45476;-64
2023/02/04 05:17:57;;;;;;;;;11.75;11.75;;;;;12.58;69.31;103198.41;5059178;28;45523;-64
2023/02/04 05:20:23;;;;;;;;;11.00;10.25;;;;;12.53;69.38;103189.50;5078693;28;45387;-64
2023/02/04 05:22:48;;;;;;;;;10.75;10.75;;;;;12.51;69.28;103182.34;5076463;27;46205;-64
2023/02/04 05:25:15;;;;;;;;;12.00;9.75;;;;;12.52;69.30;103193.06;5071279;28;45494;-64
2023/02/04 05:27:41;;;;;;;;;13.25;10.00;;;;;12.47;69.26;103186.81;5062394;28;45607;-64
2023/02/04 05:30:08;;;;;;;;;12.00;10.00;;;;;12.48;69.46;103193.97;5059087;28;45401;-64
2023/02/04 05:32:33;;;;;;;;;11.00;9.75;;;;;12.47;69.40;103192.19;5058976;28;45279;-64
2023/02/04 05:34:59;;;;;;;;;11.25;9.75;;;;;12.46;69.20;103184.13;5061249;28;45286;-63
2023/02/04 05:37:24;;;;;;;;;9.00;9.00;;;;;12.50;69.32;103192.19;5075449;28;54743;-63
2023/02/04 05:39:49;;;;;;;;;13.00;11.75;;;;;12.48;69.46;103193.97;5058436;28;46258;-63
2023/02/04 05:42:14;;;;;;;;;10.00;10.00;;;;;12.49;69.50;103194.84;5074849;28;50231;-64
2023/02/04 05:44:40;;;;;;;;;12.25;11.00;;;;;12.49;69.25;103195.75;5079378;27;45501;-64
2023/02/04 05:47:05;;;;;;;;;8.25;7.50;;;;;12.47;69.09;103200.22;5061981;27;45643;-64
2023/02/04 05:49:30;;;;;;;;;10.00;8.00;;;;;12.47;69.21;103204.69;5058514;28;46145;-64
2023/02/04 05:51:56;;;;;;;;;8.75;7.25;;;;;12.46;69.20;103208.25;5058089;28;58591;-64
2023/02/04 05:54:21;;;;;;;;;8.75;6.75;;;;;12.44;69.20;103208.25;5060601;28;52641;-64
2023/02/04 05:56:47;;;;;;;;;9.50;8.25;;;;;12.46;68.84;103205.56;5058541;28;45376;-64
2023/02/04 05:59:12;;;;;;;;;10.00;10.00;;;;;12.43;68.89;103201.13;5067577;28;45908;-64
2023/02/04 06:01:37;;;;;;;;;7.00;6.50;;;;;12.42;68.99;103200.22;5075975;28;45362;-64
2023/02/04 06:04:03;;;;;;;;;12.00;11.00;;;;;12.45;69.37;103212.72;5062305;28;45409;-63
2023/02/04 06:06:28;;;;;;;;;7.75;6.75;;;;;12.49;69.15;103216.28;5062110;28;45506;-64
2023/02/04 06:08:53;;;;;;;;;9.75;8.25;;;;;12.51;68.82;103222.53;5073391;28;48574;-64
2023/02/04 06:11:19;;;;;;;;;7.25;6.75;;;;;12.49;68.83;103221.66;5067271;28;52073;-63
2023/02/04 06:13:44;;;;;;;;;10.75;9.75;;;;;12.47;68.98;103221.66;5068752;28;45437;-64
2023/02/04 06:16:09;;;;;;;;;7.75;6.75;;;;;12.43;68.72;103217.19;5075580;28;45542;-63
2023/02/04 06:18:35;;;;;;;;;12.00;10.00;;;;;12.43;68.89;103219.88;5066385;28;53065;-64
2023/02/04 06:21:03;;;;;;;;;10.00;10.00;;;;;12.46;68.86;103230.56;5075609;28;45741;-64
2023/02/04 06:23:29;;;;;;;;;8.00;7.00;;;;;12.43;68.71;103222.56;5074339;27;45248;-64
2023/02/04 06:25:54;;;;;;;;;10.00;6.00;;;;;12.38;68.94;103217.19;5063147;28;45314;-64
2023/02/04 06:28:20;;;;;;;;;11.75;7.00;;;;;12.42;69.06;103221.63;5061813;28;45448;-64
2023/02/04 06:30:45;;;;;;;;;8.50;7.25;;;;;12.30;68.83;103210.94;5061780;28;45277;-64
2023/02/04 06:33:10;;;;;;;;;7.00;7.00;;;;;12.36;69.05;103226.09;5062145;28;45560;-64
2023/02/04 06:35:36;;;;;;;;;9.00;7.25;;;;;12.34;68.92;103212.72;5068919;28;45315;-64
2023/02/04 06:38:01;;;;;;;;;11.00;9.75;;;;;12.38;69.05;103216.31;5073953;27;45463;-63
2023/02/04 06:40:26;;;;;;;;;11.25;9.25;;;;;12.39;69.15;103210.03;5065119;28;55619;-64
2023/02/04 06:42:52;;;;;;;;;12.75;7.25;;;;;12.37;68.94;103206.47;5076153;27;45499;-64
2023/02/04 06:45:17;;;;;;;;;12.25;10.25;;;;;12.38;69.03;103198.44;5074520;28;45617;-64
2023/02/04 06:47:42;;;;;;;;;11.25;9.00;;;;;12.39;69.06;103196.66;5062001;28;45436;-64
2023/02/04 06:50:08;;;;;;;;;11.75;7.50;;;;;12.43;68.96;103209.16;5075998;28;45382;-64
2023/02/04 06:52:33;;;;;;;;;8.75;7.75;;;;;12.39;68.85;103199.31;5081368;28;45452;-64
2023/02/04 06:54:59;;;;;;;;;6.50;6.50;;;;;12.45;68.96;103217.19;5068019;27;49845;-64
2023/02/04 06:57:24;;;;;;;;;10.00;9.25;;;;;12.42;69.18;103218.06;5069849;28;53541;-64
2023/02/04 06:59:49;;;;;;;;;14.50;12.25;;;;;12.39;69.11;103226.09;5061335;28;45371;-64
2023/02/04 07:02:14;;;;;;;;;14.25;11.75;;;;;12.36;69.27;103218.97;5068475;28;52326;-64
2023/02/04 07:04:42;;;;;;;;;11.75;11.00;;;;;12.30;69.33;103210.06;5074235;27;45452;-66
2023/02/04 07:07:08;;;;;;;;;13.00;10.25;;;;;12.26;69.63;103222.53;5066762;28;46153;-69
2023/02/04 07:09:33;;;;;;;;;11.00;10.75;;;;;12.27;69.34;103226.13;5079523;28;45312;-67
2023/02/04 07:11:59;;;;;;;;;11.25;10.75;;;;;12.31;69.58;103236.84;5069443;28;45526;-67
2023/02/04 07:14:24;;;;;;;;;12.50;12.50;;;;;12.32;69.51;103230.56;5073702;28;45518;-69
2023/02/04 07:16:49;;;;;;;;;10.25;10.25;;;;;12.28;69.46;103212.72;5078365;28;45583;-70
2023/02/04 07:19:15;;;;;;;;;13.25;11.50;;;;;12.29;69.80;103224.31;5078092;27;45493;-70
2023/02/04 07:21:40;;;;;;;;;11.75;11.75;;;;;12.36;69.85;103239.50;5079172;28;59700;-70
2023/02/04 07:24:05;;;;;;;;;20.00;15.50;;;;;12.25;69.66;103218.09;5076876;28;45903;-70
2023/02/04 07:26:31;;;;;;;;;23.00;20.25;;;;;12.35;69.56;103241.28;5078317;28;48328;-70
2023/02/04 07:28:56;;;;;;;;;14.00;12.00;;;;;12.35;69.60;103249.31;5080680;28;45457;-69
2023/02/04 07:31:21;;;;;;;;;14.00;13.50;;;;;12.37;69.76;103254.69;5065094;28;45504;-69
2023/02/04 07:33:47;;;;;;;;;10.00;9.00;;;;;12.37;69.64;103258.25;5072117;28;45592;-70
2023/02/04 07:36:12;;;;;;;;;17.50;13.00;;;;;12.34;69.63;103243.97;5077213;28;46206;-69
2023/02/04 07:38:37;;;;;;;;;13.50;13.50;;;;;12.36;69.78;103259.16;5080795;27;45417;-69
2023/02/04 07:41:03;;;;;;;;;10.00;6.50;;;;;12.28;69.66;103252.91;5072042;27;45416;-69
2023/02/04 07:43:28;;;;;;;;;18.50;13.00;;;;;12.31;69.74;103260.03;5069503;27;45403;-69
2023/02/04 07:45:53;;;;;;;;;12.25;12.25;;;;;12.30;69.90;103264.50;5073766;27;50979;-69
2023/02/04 07:48:19;;;;;;;;;12.25;12.00;;;;;12.26;69.98;103262.69;5070711;28;45462;-69
2023/02/04 07:50:44;;;;;;;;;11.00;10.25;;;;;12.26;70.18;103264.50;5063722;28;45460;-68
2023/02/04 07:53:09;;;;;;;;;13.00;13.00;;;;;12.20;69.84;103255.56;5070010;28;45658;-68
2023/02/04 07:55:35;;;;;;;;;13.00;12.00;;;;;12.26;70.05;103273.41;5067518;28;46085;-69
2023/02/04 07:58:00;;;;;;;;;11.75;11.75;;;;;12.23;70.14;103266.28;5071232;28;45320;-68
2023/02/04 08:00:25;;;;;;;;;10.50;9.75;;;;;12.29;70.02;103276.09;5074347;28;45694;-69
2023/02/04 08:02:51;;;;;;;;;12.50;12.50;;;;;12.24;70.05;103269.84;5071518;27;45456;-69
2023/02/04 08:05:16;;;;;;;;;10.25;10.25;;;;;12.30;70.08;103275.22;5059929;28;45345;-69
2023/02/04 08:07:41;;;;;;;;;11.75;11.00;;;;;12.33;69.99;103285.94;5068191;28;45477;-63
2023/02/04 08:10:08;;;;;;;;;13.50;12.00;;;;;12.33;70.22;103279.66;5076815;27;45552;-64
2023/02/04 08:12:33;;;;;;;;;12.25;11.25;;;;;12.31;69.96;103271.66;5074872;27;45380;-64
2023/02/04 08:15:00;;;;;;;;;10.75;10.50;;;;;12.33;70.00;103279.66;5068510;27;45368;-64
2023/02/04 08:17:25;;;;;;;;;14.00;12.50;;;;;12.40;70.13;103286.84;5071381;27;45354;-65
2023/02/04 08:19:51;;;;;;;;;11.50;10.25;;;;;12.37;70.02;103285.03;5076286;28;45508;-66
2023/02/04 08:22:16;;;;;;;;;14.75;13.75;;;;;12.34;70.12;103278.78;5080247;28;45398;-65
2023/02/04 08:24:41;;;;;;;;;17.75;12.00;;;;;12.25;70.11;103274.31;5062962;27;46324;-65
2023/02/04 08:27:07;;;;;;;;;13.00;11.50;;;;;12.37;70.25;103286.81;5059942;28;45563;-65
2023/02/04 08:29:32;;;;;;;;;17.00;14.25;;;;;12.36;69.97;103287.72;5059756;28;45625;-65
2023/02/04 08:31:58;;;;;;;;;13.50;12.00;;;;;12.29;70.23;103281.44;5063714;28;45421;-65
2023/02/04 08:34:24;;;;;;;;;12.50;11.25;;;;;12.19;70.12;103268.94;5072271;27;45701;-65
2023/02/04 08:36:49;;;;;;;;;9.75;8.50;;;;;12.29;70.10;103283.25;5070852;27;45466;-65
2023/02/04 08:39:14;;;;;;;;;11.00;11.00;;;;;12.32;70.19;103296.66;5063294;27;45451;-64
2023/02/04 08:41:40;;;;;;;;;11.25;11.00;;;;;12.23;70.18;103271.63;5062824;27;45485;-64
2023/02/04 08:44:05;;;;;;;;;12.25;12.00;;;;;12.30;70.29;103288.59;5078881;27;45334;-64
2023/02/04 08:46:31;;;;;;;;;12.50;11.50;;;;;12.32;70.17;103294.84;5069451;27;45374;-64
2023/02/04 08:48:56;;;;;;;;;13.75;13.50;;;;;12.27;70.33;103282.38;5068438;27;45482;-64
2023/02/04 08:51:22;;;;;;;;;14.00;13.75;;;;;12.29;70.50;103292.16;5073633;27;45300;-65
2023/02/04 08:53:47;;;;;;;;;14.50;13.00;;;;;12.29;70.50;103292.16;5067067;27;46122;-65
2023/02/04 08:56:16;;;;;;;;;14.25;13.50;;;;;12.35;70.34;103300.22;5073406;28;45374;-65
2023/02/04 08:58:42;;;;;;;;;14.75;13.50;;;;;12.35;70.56;103308.25;5070602;27;45429;-65
2023/02/04 09:01:10;;;;;;;;;14.00;14.00;;;;;12.32;70.82;103304.69;5078422;27;45465;-65
2023/02/04 09:03:35;;;;;;;;;12.00;12.00;;;;;12.34;70.67;103297.53;5075213;27;45417;-65
2023/02/04 09:06:01;;;;;;;;;13.25;13.00;;;;;12.36;70.95;103306.47;5072652;28;45238;-65
2023/02/04 09:08:26;;;;;;;;;13.75;12.50;;;;;12.31;70.79;103294.84;5070181;27;46798;-65
2023/02/04 09:10:51;;;;;;;;;12.75;12.25;;;;;12.27;70.91;103288.59;5071094;28;45251;-66
2023/02/04 09:13:16;;;;;;;;;13.75;13.00;;;;;12.35;71.08;103307.38;5074651;27;46035;-65
2023/02/04 09:15:42;;;;;;;;;16.75;14.00;;;;;12.29;71.27;103310.91;5072763;27;45248;-64
2023/02/04 09:18:15;;;;;;;;;12.50;8.00;;;;;12.33;71.37;103317.16;5063681;27;45937;-64
2023/02/04 09:20:42;;;;;;;;;14.25;10.75;;;;;12.28;71.51;103313.59;5070575;27;45460;-63
2023/02/04 09:23:09;;;;;;;;;12.00;12.00;;;;;12.29;71.56;103310.91;5063778;27;45432;-64
2023/02/04 09:25:35;;;;;;;;;15.00;12.75;;;;;12.27;71.51;103309.16;5059791;28;45817;-64
2023/02/04 09:28:00;;;;;;;;;11.00;11.00;;;;;12.34;71.79;103318.97;5070196;28;45582;-64
2023/02/04 09:30:25;;;;;;;;;13.00;11.25;;;;;12.33;71.54;103320.75;5074617;27;45603;-64
2023/02/04 09:32:51;;;;;;;;;12.25;10.75;;;;;12.38;71.94;103320.78;5068515;28;56969;-64
2023/02/04 09:35:16;;;;;;;;;10.50;7.50;;;;;12.37;71.77;103316.28;5078527;27;52204;-64
2023/02/04 09:37:41;;;;;;;;;14.75;11.00;;;;;12.41;71.90;103323.44;5066934;27;45994;-64
2023/02/04 09:40:08;;;;;;;;;12.50;12.50;;;;;12.42;72.02;103325.22;5074017;27;45351;-64
2023/02/04 09:42:34;;;;;;;;;11.25;11.00;;;;;12.37;71.91;103317.19;5072113;28;45632;-66
2023/02/04 09:45:02;;;;;;;;;15.50;11.75;;;;;12.44;72.19;103322.56;5075731;27;45507;-65
2023/02/04 09:47:28;;;;;;;;;12.75;11.25;;;;;12.41;72.08;103324.34;5073622;27;45420;-66
2023/02/04 09:49:53;;;;;;;;;10.50;10.50;;;;;12.34;72.27;103318.97;5053184;28;45431;-65
2023/02/04 09:52:20;;;;;;;;;15.00;13.00;;;;;12.33;72.55;103306.44;5058749;28;45922;-64
2023/02/04 09:54:45;;;;;;;;;14.00;10.75;;;;;12.39;72.32;103319.84;5072142;27;46123;-64
2023/02/04 09:57:17;;;;;;;;;12.50;12.50;;;;;12.42;72.74;103334.16;5065732;28;45498;-65
2023/02/04 09:59:43;;;;;;;;;12.25;10.00;;;;;12.42;72.90;103336.81;5072697;27;46116;-64
2023/02/04 10:02:22;;;;;;;;;11.00;11.00;;;;;12.34;72.91;103325.19;5075238;27;45712;-65
2023/02/04 10:04:48;;;;;;;;;11.00;11.00;;;;;12.39;73.08;103335.94;5067473;27;46016;-65
2023/02/04 10:07:20;;;;;;;;;12.25;9.00;;;;;12.27;73.22;103317.19;5073157;27;45429;-65
2023/02/04 10:09:47;;;;;;;;;12.00;8.75;;;;;12.36;73.37;103333.25;5070532;27;45768;-65
2023/02/04 10:12:13;;;;;;;;;8.25;8.25;;;;;12.38;73.23;103344.88;5069346;28;47454;-65
2023/02/04 10:14:39;;;;;;;;;12.75;9.75;;;;;12.40;73.37;103351.13;5075001;27;45769;-65
2023/02/04 10:17:05;;;;;;;;;7.00;7.00;;;;;12.35;73.55;103340.41;5075291;27;45536;-66
2023/02/04 10:19:30;;;;;;;;;12.00;10.50;;;;;12.40;73.71;103348.44;5064841;27;45536;-65
2023/02/04 10:21:57;;;;;;;;;8.25;8.25;;;;;12.39;73.63;103352.88;5068722;27;46549;-65
2023/02/04 10:24:27;;;;;;;;;8.50;7.00;;;;;12.34;73.72;103345.75;5073072;27;45435;-65
2023/02/04 10:26:53;;;;;;;;;9.00;9.00;;;;;12.39;73.85;103354.69;5074797;27;45853;-65
2023/02/04 10:29:21;;;;;;;;;8.00;7.75;;;;;12.34;73.91;103343.94;5067372;27;45855;-65
2023/02/04 10:31:48;;;;;;;;;7.00;5.50;;;;;12.37;74.02;103354.69;5067979;27;47237;-65
2023/02/04 10:34:16;;;;;;;;;7.25;6.50;;;;;12.39;74.24;103363.59;5074596;27;45465;-65
2023/02/04 10:36:44;;;;;;;;;6.00;6.00;;;;;12.41;73.97;103358.25;5072453;28;45923;-64
2023/02/04 10:39:16;;;;;;;;;7.00;5.75;;;;;12.41;74.06;103367.19;5074869;27;45438;-65
2023/02/04 10:41:47;;;;;;;;;9.75;7.00;;;;;12.35;74.23;103353.78;5063077;27;46259;-65
2023/02/04 10:44:14;;;;;;;;;6.25;6.25;;;;;12.40;74.23;103368.06;5059568;28;45870;-65
2023/02/04 10:46:40;;;;;;;;;7.25;7.25;;;;;12.41;74.61;103372.56;5061421;27;45617;-65
2023/02/04 10:49:18;;;;;;;;;7.75;6.00;;;;;12.37;74.56;103367.19;5068673;27;45573;-65
2023/02/04 10:51:44;;;;;;;;;8.00;8.00;;;;;12.33;74.35;103354.66;5063611;27;47142;-65
2023/02/04 10:54:30;;;;;;;;;9.50;8.00;;;;;12.39;74.68;103365.41;5057978;28;45722;-65
2023/02/04 10:57:00;;;;;;;;;6.75;5.00;;;;;12.38;74.72;103366.31;5071176;28;45485;-65
2023/02/04 10:59:26;;;;;;;;;10.00;9.00;;;;;12.41;74.64;103367.19;5057700;28;45610;-65
2023/02/04 11:01:54;;;;;;;;;10.50;9.75;;;;;12.39;74.75;103360.91;5070975;28;45661;-65
2023/02/04 11:04:19;;;;;;;;;9.00;8.25;;;;;12.42;74.81;103357.38;5069517;28;45524;-65
2023/02/04 11:06:45;;;;;;;;;8.50;8.50;;;;;12.33;74.83;103343.94;5062970;27;45891;-65
2023/02/04 11:09:13;;;;;;;;;11.00;7.75;;;;;12.44;74.88;103352.03;5063746;28;47564;-64